Time;durP1;ratioP1;P1;durP2;ratioP2;P2;SDS_P1;SDS_P2;PMS_P1;PMS_P2;Temp;Humidity;BMP_temperature;BMP_pressure;BME280_temperature;BME280_humidity;BME280_pressure;Samples;Min_cycle;Max_cycle;Signal;HPM_P1;HPM_P2
2022/09/29 00:02:17;;;;;;;6.03;3.17;;;6.30;99.90;;;;;;5052184;28;20025;-44
2022/09/29 00:04:42;;;;;;;6.63;3.00;;;6.30;99.90;;;;;;5049237;28;20022;-51
2022/09/29 00:07:08;;;;;;;6.20;2.97;;;6.30;99.90;;;;;;5042138;28;20468;-44
2022/09/29 00:09:34;;;;;;;6.03;3.00;;;6.30;99.90;;;;;;5052708;28;20416;-43
2022/09/29 00:11:59;;;;;;;7.28;2.88;;;6.30;99.90;;;;;;5052824;28;20031;-43
2022/09/29 00:14:25;;;;;;;6.25;2.80;;;6.40;99.90;;;;;;5047861;28;20417;-47
2022/09/29 00:16:51;;;;;;;6.20;3.28;;;6.30;99.90;;;;;;5040015;28;20063;-43
2022/09/29 00:19:18;;;;;;;7.65;3.13;;;6.30;99.90;;;;;;5043628;28;20388;-43
2022/09/29 00:21:44;;;;;;;4.85;2.65;;;6.20;99.90;;;;;;5052212;28;20045;-47
2022/09/29 00:24:10;;;;;;;6.43;2.95;;;6.20;99.90;;;;;;5052605;28;20032;-45
2022/09/29 00:26:35;;;;;;;6.40;3.05;;;6.20;99.90;;;;;;5051406;28;20025;-46
2022/09/29 00:29:01;;;;;;;5.95;2.88;;;6.20;99.90;;;;;;5051155;28;20013;-47
2022/09/29 00:31:29;;;;;;;6.70;2.90;;;6.10;99.90;;;;;;5050856;28;20447;-48
2022/09/29 00:33:55;;;;;;;4.60;2.88;;;6.10;99.90;;;;;;5051441;28;20017;-45
2022/09/29 00:36:22;;;;;;;4.85;2.70;;;6.00;99.90;;;;;;5050403;28;20056;-49
2022/09/29 00:38:51;;;;;;;4.55;2.72;;;6.10;99.90;;;;;;5051771;28;20071;-47
2022/09/29 00:41:23;;;;;;;6.40;3.03;;;6.00;99.90;;;;;;5051527;28;20552;-43
2022/09/29 00:44:24;;;;;;;8.55;3.20;;;6.00;99.90;;;;;;5050733;28;20484;-45
2022/09/29 00:46:57;;;;;;;9.90;3.20;;;5.90;99.90;;;;;;5045515;28;20033;-43
2022/09/29 00:49:27;;;;;;;6.18;2.92;;;5.90;99.90;;;;;;5025449;28;20021;-47
2022/09/29 00:52:04;;;;;;;5.38;3.08;;;5.90;99.90;;;;;;5052218;28;20033;-42
2022/09/29 00:54:36;;;;;;;6.07;3.10;;;5.80;99.90;;;;;;5025762;28;20491;-44
2022/09/29 00:57:05;;;;;;;7.85;3.33;;;5.80;99.90;;;;;;5051866;28;20511;-50
2022/09/29 00:59:47;;;;;;;6.75;2.72;;;5.70;99.90;;;;;;5051675;28;20483;-47
2022/09/29 01:02:17;;;;;;;5.47;2.88;;;5.70;99.90;;;;;;5051326;28;20124;-46
2022/09/29 01:04:44;;;;;;;5.57;2.67;;;5.60;99.90;;;;;;5046974;28;20361;-42
2022/09/29 01:07:11;;;;;;;7.18;2.72;;;5.60;99.90;;;;;;5040958;28;20487;-42
2022/09/29 01:09:40;;;;;;;6.68;3.17;;;5.50;99.90;;;;;;5050616;28;20421;-47
2022/09/29 01:12:06;;;;;;;7.03;2.83;;;5.50;99.90;;;;;;5051572;28;20430;-47
2022/09/29 01:14:34;;;;;;;7.13;2.85;;;5.50;99.90;;;;;;5043569;28;20029;-42
2022/09/29 01:17:00;;;;;;;8.60;3.33;;;5.60;99.90;;;;;;5034611;28;20033;-44
2022/09/29 01:19:52;;;;;;;6.07;2.80;;;5.60;99.90;;;;;;5043786;28;20033;-42
2022/09/29 01:23:09;;;;;;;8.10;2.97;;;5.60;99.90;;;;;;5035817;28;20060;-44
2022/09/29 01:25:46;;;;;;;7.85;3.72;;;5.50;99.90;;;;;;5050212;28;20037;-42
2022/09/29 01:28:44;;;;;;;6.13;3.50;;;5.40;99.90;;;;;;5045852;28;20337;-45
2022/09/29 01:31:24;;;;;;;7.72;3.42;;;5.50;99.90;;;;;;5045169;28;20029;-49
2022/09/29 01:33:52;;;;;;;9.02;3.75;;;5.50;99.90;;;;;;5049096;28;20024;-44
2022/09/29 01:36:50;;;;;;;7.55;3.58;;;5.60;99.90;;;;;;5042997;28;20032;-43
2022/09/29 01:39:37;;;;;;;6.20;3.20;;;5.50;99.90;;;;;;5026216;28;20030;-49
2022/09/29 01:42:03;;;;;;;6.90;3.00;;;5.50;99.90;;;;;;5039894;28;20477;-42
2022/09/29 01:44:45;;;;;;;7.05;2.80;;;5.50;99.90;;;;;;5050803;28;20032;-42
2022/09/29 01:47:20;;;;;;;9.75;4.45;;;5.40;99.90;;;;;;5040542;28;20025;-46
2022/09/29 01:50:21;;;;;;;5.07;2.70;;;5.30;99.90;;;;;;5034742;28;20468;-45
2022/09/29 01:52:53;;;;;;;6.47;3.22;;;5.30;99.90;;;;;;5024732;28;20048;-46
2022/09/29 01:55:24;;;;;;;7.72;3.45;;;5.30;99.90;;;;;;5050801;28;20036;-46
2022/09/29 01:57:56;;;;;;;6.95;3.20;;;5.20;99.90;;;;;;5050565;28;20074;-46
2022/09/29 02:00:23;;;;;;;6.60;3.45;;;5.20;99.90;;;;;;5050552;28;20111;-47
2022/09/29 02:03:10;;;;;;;8.10;4.18;;;5.30;99.90;;;;;;5050774;28;20045;-43
2022/09/29 02:05:52;;;;;;;7.43;3.28;;;5.30;99.90;;;;;;5040149;28;20025;-45
2022/09/29 02:08:31;;;;;;;6.60;3.53;;;5.20;99.90;;;;;;5049271;28;20047;-45
2022/09/29 02:11:00;;;;;;;7.25;2.90;;;5.10;99.90;;;;;;5050868;28;20057;-42
2022/09/29 02:13:28;;;;;;;7.20;3.25;;;5.20;99.90;;;;;;5044723;28;20465;-43
2022/09/29 02:15:55;;;;;;;6.40;2.83;;;5.20;99.90;;;;;;5041971;28;20021;-42
2022/09/29 02:18:25;;;;;;;5.50;2.85;;;5.20;99.90;;;;;;5050424;28;20021;-43
2022/09/29 02:20:51;;;;;;;8.10;3.28;;;5.10;99.90;;;;;;5050470;28;20063;-43
2022/09/29 02:23:17;;;;;;;6.68;3.70;;;5.10;99.90;;;;;;5054236;28;20123;-43
2022/09/29 02:25:45;;;;;;;6.93;3.17;;;5.10;99.90;;;;;;5054572;28;20553;-47
2022/09/29 02:28:12;;;;;;;6.65;2.97;;;5.10;99.90;;;;;;5054493;28;20024;-45
2022/09/29 02:30:38;;;;;;;5.15;3.13;;;5.10;99.90;;;;;;5054555;28;20021;-44
2022/09/29 02:33:04;;;;;;;7.47;3.40;;;5.10;99.90;;;;;;5054647;28;20468;-43
2022/09/29 02:35:56;;;;;;;7.00;3.58;;;5.20;99.90;;;;;;5051657;28;20032;-43
2022/09/29 02:38:42;;;;;;;5.82;3.50;;;5.20;99.90;;;;;;5035859;28;20025;-43
2022/09/29 02:41:45;;;;;;;7.40;3.30;;;5.10;99.90;;;;;;5053159;28;20036;-43
2022/09/29 02:44:44;;;;;;;7.40;3.63;;;5.00;99.90;;;;;;5025859;28;20071;-42
2022/09/29 02:47:31;;;;;;;6.80;3.60;;;5.00;99.90;;;;;;5053236;28;20075;-42
2022/09/29 02:50:00;;;;;;;6.57;3.53;;;5.00;99.90;;;;;;5053828;28;20037;-43
2022/09/29 02:53:04;;;;;;;6.15;3.45;;;5.00;99.90;;;;;;5053641;28;20067;-43
2022/09/29 02:55:40;;;;;;;7.63;3.80;;;5.00;99.90;;;;;;5054024;28;20052;-42
2022/09/29 02:58:08;;;;;;;9.30;3.90;;;5.10;99.90;;;;;;5054145;28;20111;-42
2022/09/29 03:00:34;;;;;;;7.90;3.80;;;5.10;99.90;;;;;;5052018;28;20055;-43
2022/09/29 03:03:00;;;;;;;7.30;3.97;;;5.10;99.90;;;;;;5037994;28;20395;-42
2022/09/29 03:05:25;;;;;;;6.60;3.75;;;5.10;99.90;;;;;;5033541;28;20485;-49
2022/09/29 03:07:51;;;;;;;7.55;4.18;;;5.10;99.90;;;;;;5033442;28;20033;-45
2022/09/29 03:10:17;;;;;;;8.88;4.20;;;5.10;99.90;;;;;;5033778;28;20025;-43
2022/09/29 03:12:43;;;;;;;9.00;3.95;;;5.10;99.90;;;;;;5033756;28;20424;-51
2022/09/29 03:15:11;;;;;;;9.25;4.30;;;5.00;99.90;;;;;;5033796;28;20033;-51
2022/09/29 03:17:37;;;;;;;7.95;4.00;;;5.00;99.90;;;;;;5033735;28;20029;-46
2022/09/29 03:20:04;;;;;;;6.50;3.85;;;5.10;99.90;;;;;;5033048;28;20084;-42
2022/09/29 03:22:29;;;;;;;8.95;3.95;;;5.00;99.90;;;;;;5033480;28;20499;-42
2022/09/29 03:24:55;;;;;;;7.53;3.60;;;5.10;99.90;;;;;;5033757;28;20029;-46
2022/09/29 03:27:21;;;;;;;7.72;3.85;;;5.00;99.90;;;;;;5033360;28;20100;-46
2022/09/29 03:29:46;;;;;;;7.95;3.65;;;5.10;99.90;;;;;;5033433;28;20037;-50
2022/09/29 03:32:12;;;;;;;6.47;3.55;;;4.90;99.90;;;;;;5033131;28;20028;-45
2022/09/29 03:34:38;;;;;;;6.13;3.38;;;4.80;99.90;;;;;;5033272;28;20428;-42
2022/09/29 03:37:04;;;;;;;6.68;3.70;;;4.80;99.90;;;;;;5032886;28;20037;-49
2022/09/29 03:39:29;;;;;;;9.00;3.47;;;4.70;99.90;;;;;;5032967;28;20029;-43
2022/09/29 03:41:55;;;;;;;6.05;3.53;;;4.70;99.90;;;;;;5033006;28;20484;-44
2022/09/29 03:44:21;;;;;;;6.55;3.40;;;4.70;99.90;;;;;;5032447;28;20036;-48
2022/09/29 03:46:46;;;;;;;9.77;3.97;;;4.70;99.90;;;;;;5032086;28;20476;-46
2022/09/29 03:49:14;;;;;;;8.65;4.20;;;4.70;99.90;;;;;;5032243;28;20056;-46
2022/09/29 03:51:39;;;;;;;8.50;3.80;;;4.80;99.90;;;;;;5032355;28;20427;-48
2022/09/29 03:54:05;;;;;;;7.00;2.83;;;4.70;99.90;;;;;;5032765;28;20014;-49
2022/09/29 03:56:31;;;;;;;8.48;3.20;;;4.70;99.90;;;;;;5031274;28;20515;-43
2022/09/29 03:58:57;;;;;;;5.25;2.80;;;4.60;99.90;;;;;;5033017;28;20022;-42
2022/09/29 04:01:22;;;;;;;5.97;3.40;;;4.50;99.90;;;;;;5032688;28;20100;-44
2022/09/29 04:03:48;;;;;;;9.32;3.30;;;4.60;99.90;;;;;;5032503;28;20064;-43
2022/09/29 04:06:14;;;;;;;7.00;3.63;;;4.60;99.90;;;;;;5032058;28;20125;-50
2022/09/29 04:08:40;;;;;;;6.85;3.40;;;4.60;99.90;;;;;;5032393;28;20029;-44
2022/09/29 04:11:06;;;;;;;6.22;3.33;;;4.60;99.90;;;;;;5032528;28;20124;-43
2022/09/29 04:13:32;;;;;;;7.22;3.35;;;4.60;99.90;;;;;;5031493;28;20075;-46
2022/09/29 04:16:03;;;;;;;7.50;3.47;;;4.60;99.90;;;;;;5032622;28;20026;-45
2022/09/29 04:18:30;;;;;;;6.10;3.22;;;4.50;99.90;;;;;;5032665;28;20025;-43
2022/09/29 04:20:59;;;;;;;8.93;3.83;;;4.50;99.90;;;;;;5032432;28;20033;-51
2022/09/29 04:23:28;;;;;;;7.95;3.55;;;4.50;99.90;;;;;;5032517;28;20032;-42
2022/09/29 04:25:54;;;;;;;7.75;3.08;;;4.50;99.90;;;;;;5032164;28;20025;-46
2022/09/29 04:28:20;;;;;;;6.53;3.58;;;4.50;99.90;;;;;;5032296;28;20028;-47
2022/09/29 04:30:46;;;;;;;7.40;4.00;;;4.60;99.90;;;;;;5032023;28;20029;-42
2022/09/29 04:33:11;;;;;;;8.32;3.88;;;4.60;99.90;;;;;;5032256;28;20021;-43
2022/09/29 04:35:37;;;;;;;9.32;3.92;;;4.60;99.90;;;;;;5032185;28;20030;-47
2022/09/29 04:38:03;;;;;;;6.05;3.53;;;4.50;99.90;;;;;;5031977;28;20029;-43
2022/09/29 04:40:28;;;;;;;6.72;4.13;;;4.60;99.90;;;;;;5032147;28;20021;-46
2022/09/29 04:42:54;;;;;;;7.38;3.65;;;4.70;99.90;;;;;;5031977;28;20100;-43
2022/09/29 04:45:19;;;;;;;10.65;3.80;;;4.60;99.90;;;;;;5031329;28;20029;-46
2022/09/29 04:47:45;;;;;;;6.35;3.88;;;4.60;99.90;;;;;;5030075;28;20060;-52
2022/09/29 04:50:11;;;;;;;6.72;3.15;;;4.60;99.90;;;;;;5030849;28;20104;-46
2022/09/29 04:52:36;;;;;;;6.68;3.58;;;4.60;99.90;;;;;;5030768;28;20087;-46
2022/09/29 04:55:03;;;;;;;8.80;3.85;;;4.60;99.90;;;;;;5030532;28;20021;-44
2022/09/29 04:57:29;;;;;;;8.00;3.80;;;4.50;99.90;;;;;;5031259;28;20040;-46
2022/09/29 04:59:55;;;;;;;7.47;4.03;;;4.50;99.90;;;;;;5030878;28;20419;-49
2022/09/29 05:02:21;;;;;;;9.30;3.63;;;4.50;99.90;;;;;;5031125;28;20033;-45
2022/09/29 05:04:47;;;;;;;7.40;4.15;;;4.50;99.90;;;;;;5031302;28;20024;-46
2022/09/29 05:07:13;;;;;;;9.18;4.72;;;4.50;99.90;;;;;;5031619;28;20080;-48
2022/09/29 05:09:39;;;;;;;6.63;3.25;;;4.50;99.90;;;;;;5031290;28;20059;-49
2022/09/29 05:12:05;;;;;;;7.60;3.60;;;4.40;99.90;;;;;;5031500;28;20112;-50
2022/09/29 05:14:30;;;;;;;5.72;3.00;;;4.30;99.90;;;;;;5031064;28;20103;-43
2022/09/29 05:16:57;;;;;;;6.78;3.25;;;4.30;99.90;;;;;;5031470;28;20187;-42
2022/09/29 05:19:22;;;;;;;7.50;3.10;;;4.40;99.90;;;;;;5031227;28;20017;-49
2022/09/29 05:21:48;;;;;;;5.80;2.95;;;4.30;99.90;;;;;;5031198;28;20091;-44
2022/09/29 05:24:14;;;;;;;8.15;3.22;;;4.30;99.90;;;;;;5031241;28;20018;-47
2022/09/29 05:26:40;;;;;;;7.32;3.80;;;4.20;99.90;;;;;;5031171;28;20143;-42
2022/09/29 05:29:05;;;;;;;6.65;3.38;;;4.20;99.90;;;;;;5031127;28;20022;-42
2022/09/29 05:31:31;;;;;;;6.40;3.20;;;4.10;99.90;;;;;;5031669;28;20025;-51
2022/09/29 05:33:57;;;;;;;6.30;3.50;;;4.10;99.90;;;;;;5031082;28;20037;-42
2022/09/29 05:36:23;;;;;;;5.70;3.13;;;4.10;99.90;;;;;;5030678;28;20053;-43
2022/09/29 05:38:48;;;;;;;6.25;3.70;;;4.10;99.90;;;;;;5030703;28;20481;-49
2022/09/29 05:41:21;;;;;;;6.63;3.30;;;4.00;99.90;;;;;;5030905;28;20045;-47
2022/09/29 05:43:48;;;;;;;5.70;3.20;;;4.00;99.90;;;;;;5030984;28;20095;-42
2022/09/29 05:46:15;;;;;;;6.03;3.08;;;4.00;99.90;;;;;;5030730;28;20025;-47
2022/09/29 05:48:42;;;;;;;5.70;2.90;;;4.00;99.90;;;;;;5030970;28;20063;-44
2022/09/29 05:51:13;;;;;;;6.25;3.45;;;4.00;99.90;;;;;;5030810;28;20472;-47
2022/09/29 05:53:40;;;;;;;5.45;3.55;;;4.00;99.90;;;;;;5030937;28;20056;-43
2022/09/29 05:56:11;;;;;;;10.18;4.10;;;4.00;99.90;;;;;;5030821;28;20029;-48
2022/09/29 05:58:38;;;;;;;7.18;3.25;;;4.00;99.90;;;;;;5030731;28;20588;-42
2022/09/29 06:01:09;;;;;;;6.00;3.42;;;4.00;99.90;;;;;;5041023;28;20496;-43
2022/09/29 06:03:35;;;;;;;8.30;3.90;;;4.00;99.90;;;;;;5030975;28;20057;-47
2022/09/29 06:06:12;;;;;;;8.40;3.55;;;4.10;99.90;;;;;;5030555;28;20469;-46
2022/09/29 06:08:38;;;;;;;8.13;3.17;;;4.10;99.90;;;;;;5030528;28;20044;-46
2022/09/29 06:11:12;;;;;;;6.90;3.53;;;4.10;99.90;;;;;;5030545;28;20026;-53
2022/09/29 06:13:46;;;;;;;9.77;3.22;;;4.00;99.90;;;;;;5030499;28;20021;-43
2022/09/29 06:16:13;;;;;;;11.65;3.88;;;4.00;99.90;;;;;;5030636;28;20026;-43
2022/09/29 06:18:39;;;;;;;7.45;3.65;;;4.00;99.90;;;;;;5030713;28;20503;-43
2022/09/29 06:21:07;;;;;;;7.03;3.00;;;4.00;99.90;;;;;;5030391;28;20042;-44
2022/09/29 06:23:33;;;;;;;6.18;3.10;;;4.00;99.90;;;;;;5030736;28;20079;-45
2022/09/29 06:26:03;;;;;;;7.40;3.05;;;4.00;99.90;;;;;;5029035;28;20500;-45
2022/09/29 06:28:29;;;;;;;;;;;4.10;99.90;;;;;;5030940;28;20465;-45
2022/09/29 06:31:03;;;;;;;6.10;3.13;;;4.10;99.90;;;;;;5030678;28;19912;-45
2022/09/29 06:33:30;;;;;;;7.03;3.00;;;4.20;99.90;;;;;;5030561;28;20029;-46
2022/09/29 06:38:46;;;;;;;7.95;3.40;;;4.20;99.90;;;;;;5020209;28;20045;-46
2022/09/29 06:41:12;;;;;;;6.10;3.40;;;4.30;99.90;;;;;;5030262;28;20390;-47
2022/09/29 06:43:38;;;;;;;6.47;3.80;;;4.40;99.90;;;;;;5030478;28;20026;-44
2022/09/29 06:46:04;;;;;;;6.55;3.30;;;4.50;99.90;;;;;;5036412;28;20017;-43
2022/09/29 06:48:29;;;;;;;6.80;3.40;;;4.60;99.90;;;;;;5030286;28;20040;-44
2022/09/29 06:50:55;;;;;;;9.15;3.72;;;4.70;99.90;;;;;;5029978;28;20030;-42
2022/09/29 06:53:21;;;;;;;7.55;3.45;;;4.70;99.90;;;;;;5029816;28;20018;-45
2022/09/29 06:55:56;;;;;;;7.53;4.00;;;4.80;99.90;;;;;;5030016;28;20080;-46
2022/09/29 06:58:22;;;;;;;11.02;5.47;;;4.90;99.90;;;;;;5030367;28;20029;-46
2022/09/29 07:00:48;;;;;;;8.98;4.72;;;5.00;99.90;;;;;;5029770;28;20053;-46
2022/09/29 07:03:14;;;;;;;8.50;4.78;;;5.10;99.90;;;;;;5030100;28;20095;-43
2022/09/29 07:05:40;;;;;;;9.52;5.32;;;5.20;99.90;;;;;;5029904;28;20036;-45
2022/09/29 07:08:05;;;;;;;7.53;4.50;;;5.30;99.90;;;;;;5031488;28;20018;-51
2022/09/29 07:10:31;;;;;;;9.68;4.78;;;5.40;99.90;;;;;;5033770;28;20057;-46
2022/09/29 07:12:57;;;;;;;9.80;4.57;;;5.40;99.90;;;;;;5033988;28;20029;-47
2022/09/29 07:15:30;;;;;;;8.00;4.60;;;5.50;99.90;;;;;;5034553;28;20026;-49
2022/09/29 07:17:59;;;;;;;9.63;4.72;;;5.60;99.90;;;;;;5034748;28;20038;-43
2022/09/29 07:20:26;;;;;;;8.95;4.68;;;5.70;99.90;;;;;;5034333;28;20029;-43
2022/09/29 07:22:52;;;;;;;7.03;4.38;;;5.90;99.90;;;;;;5036426;28;20060;-47
2022/09/29 07:25:18;;;;;;;7.57;4.22;;;6.00;99.90;;;;;;5033315;28;20515;-43
2022/09/29 07:27:44;;;;;;;8.15;4.47;;;6.10;99.90;;;;;;5034290;28;20053;-45
2022/09/29 07:30:10;;;;;;;8.43;4.40;;;6.20;99.90;;;;;;5039242;28;20017;-49
2022/09/29 07:32:36;;;;;;;8.13;4.55;;;6.20;99.90;;;;;;5038455;28;20048;-41
2022/09/29 07:35:02;;;;;;;8.80;4.82;;;6.30;99.90;;;;;;5038040;28;20029;-46
2022/09/29 07:37:29;;;;;;;8.20;4.90;;;6.50;99.90;;;;;;5032815;28;20030;-47
2022/09/29 07:39:55;;;;;;;10.25;5.18;;;6.70;99.90;;;;;;5032911;28;20013;-43
2022/09/29 07:42:20;;;;;;;13.50;6.25;;;7.00;99.90;;;;;;5032901;28;20038;-45
2022/09/29 07:44:47;;;;;;;10.75;5.38;;;7.30;99.90;;;;;;5032673;28;20035;-44
2022/09/29 07:47:13;;;;;;;14.20;5.72;;;7.80;99.90;;;;;;5032876;28;20022;-46
2022/09/29 07:49:40;;;;;;;9.45;4.63;;;8.40;99.90;;;;;;5032880;28;20034;-47
2022/09/29 07:52:07;;;;;;;8.05;4.15;;;9.20;99.90;;;;;;5030875;28;20060;-51
2022/09/29 07:54:33;;;;;;;10.43;5.43;;;10.10;99.90;;;;;;5040913;28;20064;-49
2022/09/29 07:56:59;;;;;;;8.02;3.67;;;10.90;99.90;;;;;;5039528;28;20025;-49
2022/09/29 07:59:26;;;;;;;7.43;3.88;;;11.70;99.90;;;;;;5043506;28;20061;-45
2022/09/29 08:01:52;;;;;;;6.60;3.63;;;12.60;99.90;;;;;;5048964;28;20124;-47
2022/09/29 08:04:18;;;;;;;7.25;3.70;;;13.40;99.90;;;;;;5041890;28;20453;-50
2022/09/29 08:06:43;;;;;;;6.65;3.42;;;14.10;99.90;;;;;;5045796;28;20025;-49
2022/09/29 08:09:09;;;;;;;8.82;3.42;;;14.90;99.90;;;;;;5044613;28;20017;-56
2022/09/29 08:11:39;;;;;;;8.00;3.13;;;15.20;99.90;;;;;;5037051;28;20044;-46
2022/09/29 08:14:06;;;;;;;10.23;3.55;;;15.00;99.90;;;;;;5032274;28;20025;-47
2022/09/29 08:16:33;;;;;;;5.72;3.13;;;14.90;99.90;;;;;;5032710;28;20474;-47
2022/09/29 08:19:00;;;;;;;7.47;3.00;;;15.00;99.90;;;;;;5032644;28;20075;-44
2022/09/29 08:21:26;;;;;;;6.30;2.97;;;15.40;99.90;;;;;;5032039;28;20125;-44
2022/09/29 08:23:51;;;;;;;7.55;3.58;;;15.60;99.90;;;;;;5030460;28;20116;-44
2022/09/29 08:26:19;;;;;;;8.23;3.38;;;16.20;99.90;;;;;;5044258;28;20029;-46
2022/09/29 08:28:46;;;;;;;7.28;3.03;;;16.90;99.90;;;;;;5031679;28;20025;-47
2022/09/29 08:31:21;;;;;;;4.85;2.80;;;18.00;99.90;;;;;;5031974;28;20021;-45
2022/09/29 08:33:51;;;;;;;5.75;2.75;;;18.80;96.20;;;;;;5030799;28;20511;-45
2022/09/29 08:36:20;;;;;;;;;;;19.60;96.40;;;;;;5033205;28;20033;-53
2022/09/29 08:38:53;;;;;;;4.60;2.17;;;21.20;93.50;;;;;;5029665;28;20335;-48
2022/09/29 08:41:37;;;;;;;3.95;1.92;;;22.30;90.00;;;;;;5038074;28;20041;-51
2022/09/29 08:44:05;;;;;;;4.30;1.80;;;22.50;85.80;;;;;;5044996;28;20360;-46
2022/09/29 08:46:38;;;;;;;3.13;1.48;;;23.80;83.10;;;;;;5045221;28;20053;-49
2022/09/29 08:49:36;;;;;;;3.55;1.58;;;24.60;77.90;;;;;;5032729;28;20029;-48
2022/09/29 08:52:11;;;;;;;3.90;1.80;;;24.70;73.70;;;;;;5023594;28;20042;-49
2022/09/29 08:54:40;;;;;;;3.65;1.58;;;25.00;72.10;;;;;;5034312;28;20021;-49
2022/09/29 08:57:17;;;;;;;4.25;1.90;;;25.20;73.40;;;;;;5031242;28;20021;-49
2022/09/29 08:59:48;;;;;;;5.15;2.00;;;25.50;72.20;;;;;;5029164;28;20055;-48
2022/09/29 09:02:45;;;;;;;3.28;1.80;;;25.50;70.00;;;;;;5042689;28;20045;-47
2022/09/29 09:05:21;;;;;;;4.22;1.90;;;25.90;65.90;;;;;;5046371;28;20387;-47
2022/09/29 09:08:33;;;;;;;4.32;2.00;;;26.30;67.10;;;;;;5044590;28;20060;-49
2022/09/29 09:11:21;;;;;;;4.10;1.88;;;26.60;65.30;;;;;;5040079;28;20057;-45
2022/09/29 09:14:06;;;;;;;4.07;1.85;;;26.90;67.50;;;;;;5034232;28;20033;-52
2022/09/29 09:17:14;;;;;;;3.15;1.60;;;27.00;63.60;;;;;;5043210;28;20051;-51
2022/09/29 09:19:49;;;;;;;4.32;1.60;;;27.40;63.70;;;;;;5045957;28;20021;-47
2022/09/29 09:22:50;;;;;;;2.97;1.50;;;27.90;60.90;;;;;;5047445;28;20033;-47
2022/09/29 09:25:33;;;;;;;2.92;1.10;;;28.30;60.30;;;;;;5034724;28;20024;-50
2022/09/29 09:28:10;;;;;;;4.85;1.77;;;29.00;58.50;;;;;;5034127;28;20029;-52
2022/09/29 09:30:50;;;;;;;2.92;1.20;;;29.20;59.60;;;;;;5029630;28;20032;-53
2022/09/29 09:33:23;;;;;;;2.92;1.23;;;29.80;57.80;;;;;;5034115;28;20037;-47
2022/09/29 09:35:53;;;;;;;2.35;1.35;;;30.60;54.10;;;;;;5033227;28;20074;-47
2022/09/29 09:38:24;;;;;;;2.85;1.30;;;30.70;53.00;;;;;;5032447;28;20414;-46
2022/09/29 09:40:54;;;;;;;3.25;1.30;;;30.70;53.50;;;;;;5029982;28;20045;-43
2022/09/29 09:43:28;;;;;;;2.55;1.23;;;31.00;50.70;;;;;;5034114;28;20022;-50
2022/09/29 09:46:07;;;;;;;3.65;1.10;;;31.30;53.30;;;;;;5030762;28;20485;-50
2022/09/29 09:48:40;;;;;;;1.48;0.70;;;31.60;51.20;;;;;;5030628;28;20014;-43
2022/09/29 09:51:32;;;;;;;2.08;0.90;;;31.40;51.00;;;;;;5032081;28;20152;-43
2022/09/29 09:54:03;;;;;;;2.25;0.90;;;31.40;50.20;;;;;;5037880;28;20060;-45
2022/09/29 09:56:56;;;;;;;3.55;1.17;;;31.80;48.00;;;;;;5027268;28;20431;-45
2022/09/29 09:59:28;;;;;;;4.13;1.90;;;31.80;49.40;;;;;;5032668;28;20025;-45
2022/09/29 10:01:53;;;;;;;3.05;1.63;;;32.00;49.30;;;;;;5026510;28;20042;-48
2022/09/29 10:04:20;;;;;;;3.33;1.50;;;32.20;48.50;;;;;;5030081;28;20064;-48
2022/09/29 10:06:46;;;;;;;4.32;1.85;;;32.40;47.10;;;;;;5029175;28;20152;-45
2022/09/29 10:09:14;;;;;;;4.32;2.00;;;32.20;47.40;;;;;;5030928;28;20109;-45
2022/09/29 10:11:41;;;;;;;4.38;1.77;;;32.20;46.90;;;;;;5030288;28;20548;-48
2022/09/29 10:14:21;;;;;;;5.43;1.70;;;30.40;48.00;;;;;;5030657;28;20045;-47
2022/09/29 10:16:59;;;;;;;3.67;1.92;;;30.10;51.70;;;;;;5030770;28;20029;-45
2022/09/29 10:20:04;;;;;;;3.33;1.57;;;30.60;50.00;;;;;;5030637;28;20370;-44
2022/09/29 10:22:31;;;;;;;3.03;1.23;;;30.50;47.80;;;;;;5030248;28;20129;-50
2022/09/29 10:25:17;;;;;;;2.42;1.10;;;30.60;49.60;;;;;;5030040;28;20034;-51
2022/09/29 10:27:47;;;;;;;2.45;0.95;;;31.10;49.90;;;;;;5030691;28;20041;-52
2022/09/29 10:30:34;;;;;;;2.00;1.10;;;31.30;48.70;;;;;;5030528;28;20493;-50
2022/09/29 10:33:05;;;;;;;1.73;0.82;;;32.30;47.70;;;;;;5030415;28;20118;-46
2022/09/29 10:35:39;;;;;;;3.95;1.00;;;31.90;47.50;;;;;;5030626;28;20030;-44
2022/09/29 10:38:07;;;;;;;1.98;1.20;;;32.10;46.40;;;;;;5030563;28;20032;-51
2022/09/29 10:40:35;;;;;;;1.77;0.87;;;32.20;46.10;;;;;;5030679;28;20030;-50
2022/09/29 10:43:24;;;;;;;2.42;1.30;;;31.80;47.00;;;;;;5032788;28;20790;-44
2022/09/29 10:45:49;;;;;;;;;;;30.40;48.00;;;;;;5029799;28;20489;-46
2022/09/29 10:48:17;;;;;;;3.05;1.27;;;28.70;48.00;;;;;;5034016;28;19940;-45
2022/09/29 10:50:53;;;;;;;1.17;0.70;;;27.10;51.30;;;;;;5031435;28;20074;-44
2022/09/29 10:53:24;;;;;;;2.28;1.00;;;25.10;52.40;;;;;;5037464;28;20041;-44
2022/09/29 10:55:53;;;;;;;1.80;0.88;;;23.70;56.20;;;;;;5040451;28;20037;-47
2022/09/29 10:58:22;;;;;;;;;;;22.90;60.70;;;;;;5040934;28;20044;-44
2022/09/29 11:00:48;;;;;;;2.05;0.93;;;23.00;59.70;;;;;;5042142;28;19966;-45
2022/09/29 11:03:22;;;;;;;1.73;0.98;;;23.50;59.50;;;;;;5037349;28;20029;-46
2022/09/29 11:05:58;;;;;;;2.20;1.20;;;24.10;59.10;;;;;;5046220;28;20108;-44
2022/09/29 11:08:27;;;;;;;2.17;1.30;;;24.70;57.70;;;;;;5041462;28;20044;-51
2022/09/29 11:11:01;;;;;;;;;;;25.20;60.50;;;;;;5040133;28;20021;-45
2022/09/29 11:13:30;;;;;;;3.03;1.10;;;25.20;54.70;;;;;;5038192;28;19956;-46
2022/09/29 11:16:04;;;;;;;2.60;1.02;;;24.70;57.60;;;;;;5037118;28;20060;-45
2022/09/29 11:18:38;;;;;;;1.67;1.05;;;25.20;60.50;;;;;;5039730;28;20025;-47
2022/09/29 11:21:40;;;;;;;2.25;1.15;;;23.90;56.30;;;;;;5042014;28;20037;-44
2022/09/29 11:24:16;;;;;;;2.83;0.90;;;23.80;57.10;;;;;;5043322;28;21415;-46
2022/09/29 11:26:51;;;;;;;2.85;0.80;;;23.30;59.10;;;;;;5046786;28;20024;-45
2022/09/29 11:29:46;;;;;;;2.97;1.10;;;23.80;62.50;;;;;;5033557;28;20025;-44
2022/09/29 11:32:49;;;;;;;2.67;1.10;;;24.30;58.00;;;;;;5033072;28;20108;-45
2022/09/29 11:35:15;;;;;;;3.42;1.17;;;24.90;58.90;;;;;;5035997;28;20587;-43
2022/09/29 11:37:53;;;;;;;3.30;1.20;;;24.10;56.40;;;;;;5040816;28;20124;-44
2022/09/29 11:40:40;;;;;;;2.40;0.93;;;23.30;58.00;;;;;;5035451;28;20042;-43
2022/09/29 11:43:28;;;;;;;2.00;0.88;;;22.40;60.50;;;;;;5035117;28;20437;-42
2022/09/29 11:46:19;;;;;;;1.40;0.80;;;21.40;62.50;;;;;;5030499;28;20032;-44
2022/09/29 11:48:59;;;;;;;2.97;0.90;;;21.00;66.00;;;;;;5038356;28;20106;-53
2022/09/29 11:51:53;;;;;;;2.22;0.80;;;21.10;64.10;;;;;;5035186;28;20037;-46
2022/09/29 11:55:04;;;;;;;1.45;0.70;;;21.60;66.50;;;;;;5024885;28;20103;-48
2022/09/29 11:57:52;;;;;;;1.42;0.68;;;23.00;63.00;;;;;;5027955;28;20079;-44
2022/09/29 12:00:22;;;;;;;2.72;0.80;;;24.10;58.40;;;;;;5029097;28;20044;-49
2022/09/29 12:02:58;;;;;;;;;;;25.10;55.80;;;;;;5036989;28;20538;-49
2022/09/29 12:05:39;;;;;;;1.40;0.80;;;26.20;55.70;;;;;;5030814;28;19913;-45
2022/09/29 12:08:23;;;;;;;1.67;0.70;;;26.90;51.80;;;;;;5031310;28;20029;-53
2022/09/29 12:11:03;;;;;;;1.58;0.70;;;26.70;50.50;;;;;;5026195;28;20029;-42
2022/09/29 12:13:46;;;;;;;0.90;0.73;;;26.10;52.40;;;;;;5042819;28;20026;-47
2022/09/29 12:16:16;;;;;;;1.25;0.90;;;25.60;52.80;;;;;;5025788;28;20034;-44
2022/09/29 12:18:57;;;;;;;2.25;0.90;;;24.70;55.70;;;;;;5031494;28;20540;-43
2022/09/29 12:21:33;;;;;;;1.50;0.70;;;23.70;57.20;;;;;;5040747;28;20444;-45
2022/09/29 12:24:04;;;;;;;2.20;1.00;;;22.70;59.50;;;;;;5035799;28;20030;-49
2022/09/29 12:26:32;;;;;;;2.80;0.80;;;22.50;60.80;;;;;;5029076;28;20037;-44
2022/09/29 12:29:00;;;;;;;2.08;0.70;;;21.80;59.60;;;;;;5038646;28;20740;-46
2022/09/29 12:31:41;;;;;;;3.05;0.80;;;22.00;61.50;;;;;;5035163;28;20030;-42
2022/09/29 12:34:16;;;;;;;1.25;0.80;;;22.50;63.70;;;;;;5028084;28;20033;-45
2022/09/29 12:37:04;;;;;;;2.08;1.00;;;21.70;57.90;;;;;;5030356;28;20029;-46
2022/09/29 12:39:51;;;;;;;1.73;0.70;;;21.40;59.90;;;;;;5031516;28;20080;-44
2022/09/29 12:42:20;;;;;;;1.88;0.88;;;20.90;64.30;;;;;;5024399;28;20041;-41
2022/09/29 12:44:54;;;;;;;2.28;1.30;;;20.60;64.50;;;;;;5033668;28;20010;-43
2022/09/29 12:47:43;;;;;;;2.15;1.10;;;20.10;68.30;;;;;;5038146;28;20065;-47
2022/09/29 12:50:19;;;;;;;2.67;1.10;;;19.80;69.30;;;;;;5028778;28;20177;-46
2022/09/29 12:52:57;;;;;;;2.72;1.15;;;19.50;69.80;;;;;;5024717;28;20025;-44
2022/09/29 12:55:49;;;;;;;4.28;1.42;;;19.30;72.70;;;;;;5030985;28;20396;-44
2022/09/29 12:58:27;;;;;;;3.35;1.10;;;19.00;70.50;;;;;;5027447;28;20061;-45
2022/09/29 13:01:07;;;;;;;3.50;1.23;;;18.70;72.60;;;;;;5039428;28;20052;-45
2022/09/29 13:04:14;;;;;;;3.05;1.15;;;18.80;73.80;;;;;;5031124;28;20056;-47
2022/09/29 13:07:02;;;;;;;3.10;0.98;;;18.80;72.20;;;;;;5037043;28;20036;-44
2022/09/29 13:09:49;;;;;;;2.42;1.17;;;18.70;74.50;;;;;;5021738;28;20017;-44
2022/09/29 13:12:35;;;;;;;1.17;0.80;;;18.30;72.70;;;;;;5029499;28;20041;-45
2022/09/29 13:15:25;;;;;;;1.80;0.85;;;18.40;72.40;;;;;;5029793;28;20079;-42
2022/09/29 13:18:04;;;;;;;2.03;0.93;;;18.50;73.70;;;;;;5029305;28;20056;-44
2022/09/29 13:21:07;;;;;;;2.92;0.95;;;18.90;73.20;;;;;;5029626;28;20112;-45
2022/09/29 13:24:14;;;;;;;2.03;0.93;;;19.00;73.50;;;;;;5029131;28;20029;-42
2022/09/29 13:26:42;;;;;;;2.60;1.20;;;19.10;72.80;;;;;;5008960;28;20038;-46
2022/09/29 13:29:20;;;;;;;2.60;1.00;;;19.20;72.00;;;;;;5031379;28;20057;-44